logo
Search for airport 
image banner adimage banner adimage banner ad
image banner ad

CSK4 - Mansonville

Located in , Canada

ICAO - CSK4, IATA -

Data provided by Airmate  

General information

Coordinates: N45°1'35" W72°24'7"
Elevation is 575 feet MSL.
Magnetic variation is -16° East
View others Airports in Quebec

Operational data

Special qualification required
Current time UTC:
Current local time:
Weather at : KEFK - Northeast Kingdom Intl ( 21 km )
METAR: KEFK 230935Z AUTO 17005KT 10SM OVC010 01/M01 A2953 RMK AO2 T00051006
View NOTAMs / SUP AIP / TFR affecting this airport [VIEW]
Communications frequencies: [VIEW]

Runways:

RWY identifierQFULength (ft)Width (ft)SurfaceLDA (ft)
09280050ASPH
27280050ASPH

Airport contact information

Address: Canada

Satellite view of CSK4